sensor_id;sensor_type;location;lat;lon;timestamp;P1;durP1;ratioP1;P2;durP2;ratioP2
7324;SDS011;3703;48.016;7.802;2022-08-19T00:00:59;8.37;;;6.90;;
7324;SDS011;3703;48.016;7.802;2022-08-19T00:03:47;10.17;;;7.63;;
7324;SDS011;3703;48.016;7.802;2022-08-19T00:06:36;8.07;;;6.70;;
7324;SDS011;3703;48.016;7.802;2022-08-19T00:09:26;9.43;;;6.93;;
7324;SDS011;3703;48.016;7.802;2022-08-19T00:12:15;10.43;;;7.90;;
7324;SDS011;3703;48.016;7.802;2022-08-19T00:15:03;7.80;;;6.73;;
7324;SDS011;3703;48.016;7.802;2022-08-19T00:17:58;9.67;;;7.30;;
7324;SDS011;3703;48.016;7.802;2022-08-19T00:20:45;7.93;;;6.70;;
7324;SDS011;3703;48.016;7.802;2022-08-19T00:23:35;8.17;;;6.67;;
7324;SDS011;3703;48.016;7.802;2022-08-19T00:26:23;10.23;;;7.60;;
7324;SDS011;3703;48.016;7.802;2022-08-19T00:29:12;8.83;;;7.10;;
7324;SDS011;3703;48.016;7.802;2022-08-19T00:32:02;9.53;;;7.27;;
7324;SDS011;3703;48.016;7.802;2022-08-19T00:34:50;8.53;;;7.27;;
7324;SDS011;3703;48.016;7.802;2022-08-19T00:37:38;9.33;;;6.90;;
7324;SDS011;3703;48.016;7.802;2022-08-19T00:40:30;10.33;;;7.63;;
7324;SDS011;3703;48.016;7.802;2022-08-19T00:43:18;9.93;;;7.50;;
7324;SDS011;3703;48.016;7.802;2022-08-19T00:46:08;11.70;;;7.87;;
7324;SDS011;3703;48.016;7.802;2022-08-19T00:48:56;8.87;;;7.17;;
7324;SDS011;3703;48.016;7.802;2022-08-19T00:51:44;9.87;;;8.13;;
7324;SDS011;3703;48.016;7.802;2022-08-19T00:54:36;10.67;;;8.10;;
7324;SDS011;3703;48.016;7.802;2022-08-19T00:57:28;10.33;;;8.03;;
7324;SDS011;3703;48.016;7.802;2022-08-19T01:00:19;9.23;;;7.63;;
7324;SDS011;3703;48.016;7.802;2022-08-19T01:03:10;9.63;;;8.00;;
7324;SDS011;3703;48.016;7.802;2022-08-19T01:06:00;9.67;;;7.93;;
7324;SDS011;3703;48.016;7.802;2022-08-19T01:08:48;10.20;;;8.57;;
7324;SDS011;3703;48.016;7.802;2022-08-19T01:11:38;11.63;;;7.97;;
7324;SDS011;3703;48.016;7.802;2022-08-19T01:14:30;8.73;;;7.67;;
7324;SDS011;3703;48.016;7.802;2022-08-19T01:17:18;10.97;;;7.90;;
7324;SDS011;3703;48.016;7.802;2022-08-19T01:20:09;11.03;;;8.63;;
7324;SDS011;3703;48.016;7.802;2022-08-19T01:23:00;10.50;;;8.17;;
7324;SDS011;3703;48.016;7.802;2022-08-19T01:25:50;14.37;;;9.37;;
7324;SDS011;3703;48.016;7.802;2022-08-19T01:28:41;11.93;;;8.63;;
7324;SDS011;3703;48.016;7.802;2022-08-19T01:31:31;10.77;;;8.57;;
7324;SDS011;3703;48.016;7.802;2022-08-19T01:34:19;9.47;;;7.93;;
7324;SDS011;3703;48.016;7.802;2022-08-19T01:37:07;10.40;;;8.63;;
7324;SDS011;3703;48.016;7.802;2022-08-19T01:39:58;10.80;;;8.13;;
7324;SDS011;3703;48.016;7.802;2022-08-19T01:42:46;9.23;;;7.87;;
7324;SDS011;3703;48.016;7.802;2022-08-19T01:45:34;10.63;;;7.83;;
7324;SDS011;3703;48.016;7.802;2022-08-19T01:48:25;9.67;;;8.23;;
7324;SDS011;3703;48.016;7.802;2022-08-19T01:51:14;11.87;;;9.30;;
7324;SDS011;3703;48.016;7.802;2022-08-19T01:54:02;11.73;;;8.33;;
7324;SDS011;3703;48.016;7.802;2022-08-19T01:56:52;9.37;;;7.93;;
7324;SDS011;3703;48.016;7.802;2022-08-19T01:59:44;10.70;;;8.33;;
7324;SDS011;3703;48.016;7.802;2022-08-19T02:02:32;10.73;;;8.80;;
7324;SDS011;3703;48.016;7.802;2022-08-19T02:05:20;12.43;;;8.70;;
7324;SDS011;3703;48.016;7.802;2022-08-19T02:08:08;10.43;;;8.23;;
7324;SDS011;3703;48.016;7.802;2022-08-19T02:10:57;11.40;;;8.07;;
7324;SDS011;3703;48.016;7.802;2022-08-19T02:13:47;11.13;;;8.40;;
7324;SDS011;3703;48.016;7.802;2022-08-19T02:16:35;9.27;;;7.77;;
7324;SDS011;3703;48.016;7.802;2022-08-19T02:19:23;9.53;;;7.90;;
7324;SDS011;3703;48.016;7.802;2022-08-19T02:22:11;11.43;;;8.40;;
7324;SDS011;3703;48.016;7.802;2022-08-19T02:24:59;10.73;;;8.90;;
7324;SDS011;3703;48.016;7.802;2022-08-19T02:27:46;11.27;;;9.23;;
7324;SDS011;3703;48.016;7.802;2022-08-19T02:30:35;11.70;;;9.27;;
7324;SDS011;3703;48.016;7.802;2022-08-19T02:33:23;10.83;;;8.93;;
7324;SDS011;3703;48.016;7.802;2022-08-19T02:36:11;10.93;;;9.20;;
7324;SDS011;3703;48.016;7.802;2022-08-19T02:39:02;11.73;;;8.67;;
7324;SDS011;3703;48.016;7.802;2022-08-19T02:41:49;12.00;;;8.63;;
7324;SDS011;3703;48.016;7.802;2022-08-19T02:44:37;11.47;;;8.93;;
7324;SDS011;3703;48.016;7.802;2022-08-19T02:47:26;12.33;;;8.83;;
7324;SDS011;3703;48.016;7.802;2022-08-19T02:50:14;12.27;;;9.33;;
7324;SDS011;3703;48.016;7.802;2022-08-19T02:53:01;11.83;;;8.87;;
7324;SDS011;3703;48.016;7.802;2022-08-19T02:55:49;11.33;;;8.23;;
7324;SDS011;3703;48.016;7.802;2022-08-19T02:58:38;10.80;;;8.67;;
7324;SDS011;3703;48.016;7.802;2022-08-19T03:01:28;12.57;;;8.90;;
7324;SDS011;3703;48.016;7.802;2022-08-19T03:04:19;10.50;;;8.67;;
7324;SDS011;3703;48.016;7.802;2022-08-19T03:07:08;9.83;;;8.60;;
7324;SDS011;3703;48.016;7.802;2022-08-19T03:10:00;10.07;;;8.67;;
7324;SDS011;3703;48.016;7.802;2022-08-19T03:12:47;11.07;;;8.60;;
7324;SDS011;3703;48.016;7.802;2022-08-19T03:15:38;11.33;;;8.17;;
7324;SDS011;3703;48.016;7.802;2022-08-19T03:18:27;10.60;;;8.73;;
7324;SDS011;3703;48.016;7.802;2022-08-19T03:21:16;10.97;;;8.80;;
7324;SDS011;3703;48.016;7.802;2022-08-19T03:24:07;11.07;;;8.47;;
7324;SDS011;3703;48.016;7.802;2022-08-19T03:26:55;9.57;;;7.67;;
7324;SDS011;3703;48.016;7.802;2022-08-19T03:29:44;10.40;;;9.07;;
7324;SDS011;3703;48.016;7.802;2022-08-19T03:32:31;12.47;;;8.73;;
7324;SDS011;3703;48.016;7.802;2022-08-19T03:35:19;11.27;;;8.83;;
7324;SDS011;3703;48.016;7.802;2022-08-19T03:38:10;11.43;;;9.00;;
7324;SDS011;3703;48.016;7.802;2022-08-19T03:40:57;11.13;;;8.30;;
7324;SDS011;3703;48.016;7.802;2022-08-19T03:43:51;10.30;;;8.23;;
7324;SDS011;3703;48.016;7.802;2022-08-19T03:46:41;11.73;;;8.73;;
7324;SDS011;3703;48.016;7.802;2022-08-19T03:49:29;9.67;;;7.73;;
7324;SDS011;3703;48.016;7.802;2022-08-19T03:52:20;10.60;;;8.47;;
7324;SDS011;3703;48.016;7.802;2022-08-19T03:55:09;10.17;;;7.97;;
7324;SDS011;3703;48.016;7.802;2022-08-19T03:57:57;10.17;;;8.23;;
7324;SDS011;3703;48.016;7.802;2022-08-19T04:00:45;10.23;;;8.63;;
7324;SDS011;3703;48.016;7.802;2022-08-19T04:03:32;11.00;;;9.00;;
7324;SDS011;3703;48.016;7.802;2022-08-19T04:06:23;11.57;;;9.30;;
7324;SDS011;3703;48.016;7.802;2022-08-19T04:09:12;11.03;;;8.70;;
7324;SDS011;3703;48.016;7.802;2022-08-19T04:12:03;10.87;;;7.73;;
7324;SDS011;3703;48.016;7.802;2022-08-19T04:14:52;8.67;;;7.43;;
7324;SDS011;3703;48.016;7.802;2022-08-19T04:17:39;13.97;;;8.83;;
7324;SDS011;3703;48.016;7.802;2022-08-19T04:20:27;13.10;;;9.23;;
7324;SDS011;3703;48.016;7.802;2022-08-19T04:23:15;12.13;;;9.77;;
7324;SDS011;3703;48.016;7.802;2022-08-19T04:26:04;9.77;;;8.20;;
7324;SDS011;3703;48.016;7.802;2022-08-19T04:28:53;10.00;;;8.63;;
7324;SDS011;3703;48.016;7.802;2022-08-19T04:31:41;11.80;;;9.23;;
7324;SDS011;3703;48.016;7.802;2022-08-19T04:34:30;11.20;;;9.27;;
7324;SDS011;3703;48.016;7.802;2022-08-19T04:37:18;11.20;;;8.67;;
7324;SDS011;3703;48.016;7.802;2022-08-19T04:40:06;12.77;;;9.10;;
7324;SDS011;3703;48.016;7.802;2022-08-19T04:43:12;11.27;;;9.77;;
7324;SDS011;3703;48.016;7.802;2022-08-19T04:46:05;10.30;;;8.07;;
7324;SDS011;3703;48.016;7.802;2022-08-19T04:48:53;10.93;;;8.80;;
7324;SDS011;3703;48.016;7.802;2022-08-19T04:51:43;10.97;;;9.33;;
7324;SDS011;3703;48.016;7.802;2022-08-19T04:54:33;10.70;;;8.50;;
7324;SDS011;3703;48.016;7.802;2022-08-19T04:57:21;10.10;;;8.43;;
7324;SDS011;3703;48.016;7.802;2022-08-19T05:00:09;11.30;;;8.73;;
7324;SDS011;3703;48.016;7.802;2022-08-19T05:02:59;11.83;;;9.07;;
7324;SDS011;3703;48.016;7.802;2022-08-19T05:05:48;11.07;;;8.77;;
7324;SDS011;3703;48.016;7.802;2022-08-19T05:08:36;11.43;;;9.40;;
7324;SDS011;3703;48.016;7.802;2022-08-19T05:11:29;13.03;;;8.13;;
7324;SDS011;3703;48.016;7.802;2022-08-19T05:14:19;11.70;;;8.97;;
7324;SDS011;3703;48.016;7.802;2022-08-19T05:17:07;12.23;;;9.80;;
7324;SDS011;3703;48.016;7.802;2022-08-19T05:19:56;12.80;;;10.40;;
7324;SDS011;3703;48.016;7.802;2022-08-19T05:23:01;12.70;;;10.43;;
7324;SDS011;3703;48.016;7.802;2022-08-19T05:25:49;14.07;;;9.73;;
7324;SDS011;3703;48.016;7.802;2022-08-19T05:28:36;15.60;;;10.43;;
7324;SDS011;3703;48.016;7.802;2022-08-19T05:31:24;16.47;;;11.13;;
7324;SDS011;3703;48.016;7.802;2022-08-19T05:34:12;15.80;;;10.60;;
7324;SDS011;3703;48.016;7.802;2022-08-19T05:37:01;13.23;;;9.77;;
7324;SDS011;3703;48.016;7.802;2022-08-19T05:39:49;10.87;;;8.90;;
7324;SDS011;3703;48.016;7.802;2022-08-19T05:42:37;11.87;;;10.00;;
7324;SDS011;3703;48.016;7.802;2022-08-19T05:45:25;11.30;;;9.10;;
7324;SDS011;3703;48.016;7.802;2022-08-19T05:48:13;12.73;;;9.43;;
7324;SDS011;3703;48.016;7.802;2022-08-19T05:51:03;13.73;;;9.73;;
7324;SDS011;3703;48.016;7.802;2022-08-19T05:53:53;11.13;;;9.07;;
7324;SDS011;3703;48.016;7.802;2022-08-19T05:56:42;14.07;;;10.50;;
7324;SDS011;3703;48.016;7.802;2022-08-19T05:59:33;9.67;;;8.13;;
7324;SDS011;3703;48.016;7.802;2022-08-19T06:02:20;12.40;;;9.93;;
7324;SDS011;3703;48.016;7.802;2022-08-19T06:05:09;13.33;;;9.57;;
7324;SDS011;3703;48.016;7.802;2022-08-19T06:07:57;13.80;;;10.03;;
7324;SDS011;3703;48.016;7.802;2022-08-19T06:10:46;14.23;;;10.33;;
7324;SDS011;3703;48.016;7.802;2022-08-19T06:13:34;12.00;;;9.33;;
7324;SDS011;3703;48.016;7.802;2022-08-19T06:16:22;14.23;;;9.87;;
7324;SDS011;3703;48.016;7.802;2022-08-19T06:19:11;12.63;;;10.17;;
7324;SDS011;3703;48.016;7.802;2022-08-19T06:22:01;11.40;;;9.40;;
7324;SDS011;3703;48.016;7.802;2022-08-19T06:24:51;11.50;;;9.33;;
7324;SDS011;3703;48.016;7.802;2022-08-19T06:27:41;11.57;;;9.43;;
7324;SDS011;3703;48.016;7.802;2022-08-19T06:30:29;11.07;;;8.73;;
7324;SDS011;3703;48.016;7.802;2022-08-19T06:33:16;10.13;;;7.63;;
7324;SDS011;3703;48.016;7.802;2022-08-19T06:36:04;11.40;;;8.93;;
7324;SDS011;3703;48.016;7.802;2022-08-19T06:38:53;11.50;;;8.60;;
7324;SDS011;3703;48.016;7.802;2022-08-19T06:41:44;12.07;;;9.07;;
7324;SDS011;3703;48.016;7.802;2022-08-19T06:44:35;11.40;;;8.57;;
7324;SDS011;3703;48.016;7.802;2022-08-19T06:47:25;11.37;;;8.63;;
7324;SDS011;3703;48.016;7.802;2022-08-19T06:50:13;10.70;;;8.20;;
7324;SDS011;3703;48.016;7.802;2022-08-19T06:53:01;13.13;;;9.00;;
7324;SDS011;3703;48.016;7.802;2022-08-19T06:55:48;10.90;;;8.73;;
7324;SDS011;3703;48.016;7.802;2022-08-19T06:58:45;10.63;;;8.60;;
7324;SDS011;3703;48.016;7.802;2022-08-19T07:01:40;12.60;;;8.83;;
7324;SDS011;3703;48.016;7.802;2022-08-19T07:04:31;10.17;;;8.27;;
7324;SDS011;3703;48.016;7.802;2022-08-19T07:07:21;12.27;;;9.10;;
7324;SDS011;3703;48.016;7.802;2022-08-19T07:10:09;14.13;;;8.83;;
7324;SDS011;3703;48.016;7.802;2022-08-19T07:12:57;10.60;;;8.00;;
7324;SDS011;3703;48.016;7.802;2022-08-19T07:15:44;12.23;;;9.43;;
7324;SDS011;3703;48.016;7.802;2022-08-19T07:18:34;12.43;;;9.30;;
7324;SDS011;3703;48.016;7.802;2022-08-19T07:21:24;12.10;;;8.83;;
7324;SDS011;3703;48.016;7.802;2022-08-19T07:24:14;10.23;;;8.97;;
7324;SDS011;3703;48.016;7.802;2022-08-19T07:27:03;10.37;;;8.27;;
7324;SDS011;3703;48.016;7.802;2022-08-19T07:29:54;11.13;;;8.20;;
7324;SDS011;3703;48.016;7.802;2022-08-19T07:32:42;12.70;;;8.50;;
7324;SDS011;3703;48.016;7.802;2022-08-19T07:35:31;11.87;;;9.23;;
7324;SDS011;3703;48.016;7.802;2022-08-19T07:38:19;13.80;;;9.37;;
7324;SDS011;3703;48.016;7.802;2022-08-19T07:41:06;13.43;;;8.77;;
7324;SDS011;3703;48.016;7.802;2022-08-19T07:43:56;11.30;;;9.07;;
7324;SDS011;3703;48.016;7.802;2022-08-19T07:46:44;11.77;;;9.67;;
7324;SDS011;3703;48.016;7.802;2022-08-19T07:49:36;11.90;;;9.40;;
7324;SDS011;3703;48.016;7.802;2022-08-19T07:52:25;14.43;;;10.17;;
7324;SDS011;3703;48.016;7.802;2022-08-19T07:55:12;11.97;;;9.00;;
7324;SDS011;3703;48.016;7.802;2022-08-19T07:58:00;13.53;;;9.53;;
7324;SDS011;3703;48.016;7.802;2022-08-19T08:00:48;15.43;;;10.00;;
7324;SDS011;3703;48.016;7.802;2022-08-19T08:03:37;13.73;;;10.23;;
7324;SDS011;3703;48.016;7.802;2022-08-19T08:06:42;14.50;;;10.83;;
7324;SDS011;3703;48.016;7.802;2022-08-19T08:09:49;13.67;;;11.03;;
7324;SDS011;3703;48.016;7.802;2022-08-19T08:12:38;14.10;;;10.43;;
7324;SDS011;3703;48.016;7.802;2022-08-19T08:15:26;12.40;;;9.87;;
7324;SDS011;3703;48.016;7.802;2022-08-19T08:18:14;12.63;;;9.97;;
7324;SDS011;3703;48.016;7.802;2022-08-19T08:21:02;13.83;;;10.97;;
7324;SDS011;3703;48.016;7.802;2022-08-19T08:23:49;15.43;;;11.53;;
7324;SDS011;3703;48.016;7.802;2022-08-19T08:26:42;19.47;;;11.13;;
7324;SDS011;3703;48.016;7.802;2022-08-19T08:29:30;12.60;;;10.20;;
7324;SDS011;3703;48.016;7.802;2022-08-19T08:32:18;19.20;;;11.67;;
7324;SDS011;3703;48.016;7.802;2022-08-19T08:35:07;15.83;;;11.50;;
7324;SDS011;3703;48.016;7.802;2022-08-19T08:37:59;14.80;;;12.07;;
7324;SDS011;3703;48.016;7.802;2022-08-19T08:40:50;14.80;;;11.20;;
7324;SDS011;3703;48.016;7.802;2022-08-19T08:43:44;13.40;;;10.53;;
7324;SDS011;3703;48.016;7.802;2022-08-19T08:46:35;16.07;;;12.53;;
7324;SDS011;3703;48.016;7.802;2022-08-19T08:49:40;14.10;;;10.63;;
7324;SDS011;3703;48.016;7.802;2022-08-19T08:52:34;16.43;;;11.83;;
7324;SDS011;3703;48.016;7.802;2022-08-19T08:55:28;16.73;;;12.13;;
7324;SDS011;3703;48.016;7.802;2022-08-19T08:58:17;17.37;;;12.63;;
7324;SDS011;3703;48.016;7.802;2022-08-19T09:01:14;14.87;;;10.30;;
7324;SDS011;3703;48.016;7.802;2022-08-19T09:04:02;17.60;;;13.17;;
7324;SDS011;3703;48.016;7.802;2022-08-19T09:06:54;17.23;;;12.93;;
7324;SDS011;3703;48.016;7.802;2022-08-19T09:09:54;18.67;;;13.13;;
7324;SDS011;3703;48.016;7.802;2022-08-19T09:12:53;17.10;;;12.13;;
7324;SDS011;3703;48.016;7.802;2022-08-19T09:15:56;16.07;;;12.90;;
7324;SDS011;3703;48.016;7.802;2022-08-19T09:18:51;17.70;;;13.80;;
7324;SDS011;3703;48.016;7.802;2022-08-19T09:21:40;17.93;;;13.20;;
7324;SDS011;3703;48.016;7.802;2022-08-19T09:24:28;15.23;;;12.33;;
7324;SDS011;3703;48.016;7.802;2022-08-19T09:27:16;17.50;;;12.60;;
7324;SDS011;3703;48.016;7.802;2022-08-19T09:30:03;16.03;;;12.83;;
7324;SDS011;3703;48.016;7.802;2022-08-19T09:32:54;18.07;;;13.30;;
7324;SDS011;3703;48.016;7.802;2022-08-19T09:35:43;18.20;;;13.73;;
7324;SDS011;3703;48.016;7.802;2022-08-19T09:38:31;18.03;;;13.50;;
7324;SDS011;3703;48.016;7.802;2022-08-19T09:41:21;20.00;;;14.60;;
7324;SDS011;3703;48.016;7.802;2022-08-19T09:44:11;23.97;;;15.20;;
7324;SDS011;3703;48.016;7.802;2022-08-19T09:46:59;16.37;;;12.67;;
7324;SDS011;3703;48.016;7.802;2022-08-19T09:49:48;16.03;;;12.93;;
7324;SDS011;3703;48.016;7.802;2022-08-19T09:52:38;17.30;;;13.07;;
7324;SDS011;3703;48.016;7.802;2022-08-19T09:55:27;14.90;;;12.03;;
7324;SDS011;3703;48.016;7.802;2022-08-19T09:58:15;19.27;;;13.93;;
7324;SDS011;3703;48.016;7.802;2022-08-19T10:01:03;19.23;;;13.63;;
7324;SDS011;3703;48.016;7.802;2022-08-19T10:03:54;16.47;;;12.77;;
7324;SDS011;3703;48.016;7.802;2022-08-19T10:06:44;22.03;;;14.57;;
7324;SDS011;3703;48.016;7.802;2022-08-19T10:09:34;19.87;;;15.00;;
7324;SDS011;3703;48.016;7.802;2022-08-19T10:12:22;19.97;;;15.30;;
7324;SDS011;3703;48.016;7.802;2022-08-19T10:15:10;20.40;;;14.87;;
7324;SDS011;3703;48.016;7.802;2022-08-19T10:17:58;15.93;;;11.73;;
7324;SDS011;3703;48.016;7.802;2022-08-19T10:20:46;17.40;;;13.43;;
7324;SDS011;3703;48.016;7.802;2022-08-19T10:23:37;14.77;;;11.83;;
7324;SDS011;3703;48.016;7.802;2022-08-19T10:26:32;15.83;;;12.20;;
7324;SDS011;3703;48.016;7.802;2022-08-19T10:29:22;14.20;;;11.30;;
7324;SDS011;3703;48.016;7.802;2022-08-19T10:32:10;23.07;;;15.57;;
7324;SDS011;3703;48.016;7.802;2022-08-19T10:34:58;21.60;;;15.80;;
7324;SDS011;3703;48.016;7.802;2022-08-19T10:37:46;20.27;;;14.20;;
7324;SDS011;3703;48.016;7.802;2022-08-19T10:40:34;18.20;;;12.70;;
7324;SDS011;3703;48.016;7.802;2022-08-19T10:43:23;18.43;;;13.30;;
7324;SDS011;3703;48.016;7.802;2022-08-19T10:46:11;19.70;;;13.67;;
7324;SDS011;3703;48.016;7.802;2022-08-19T10:49:02;17.50;;;13.23;;
7324;SDS011;3703;48.016;7.802;2022-08-19T10:51:51;19.47;;;15.57;;
7324;SDS011;3703;48.016;7.802;2022-08-19T10:54:56;14.83;;;11.67;;
7324;SDS011;3703;48.016;7.802;2022-08-19T10:58:01;20.17;;;14.53;;
7324;SDS011;3703;48.016;7.802;2022-08-19T11:00:52;21.07;;;14.67;;
7324;SDS011;3703;48.016;7.802;2022-08-19T11:03:41;16.50;;;11.97;;
7324;SDS011;3703;48.016;7.802;2022-08-19T11:06:31;19.93;;;14.87;;
7324;SDS011;3703;48.016;7.802;2022-08-19T11:09:20;21.10;;;15.63;;
7324;SDS011;3703;48.016;7.802;2022-08-19T11:12:10;20.93;;;15.77;;
7324;SDS011;3703;48.016;7.802;2022-08-19T11:15:00;17.07;;;12.50;;
7324;SDS011;3703;48.016;7.802;2022-08-19T11:17:49;21.10;;;15.03;;
7324;SDS011;3703;48.016;7.802;2022-08-19T11:20:39;16.73;;;13.50;;
7324;SDS011;3703;48.016;7.802;2022-08-19T11:23:27;14.57;;;11.73;;
7324;SDS011;3703;48.016;7.802;2022-08-19T11:26:15;24.23;;;14.87;;
7324;SDS011;3703;48.016;7.802;2022-08-19T11:29:04;18.93;;;14.77;;
7324;SDS011;3703;48.016;7.802;2022-08-19T11:31:56;19.60;;;13.33;;
7324;SDS011;3703;48.016;7.802;2022-08-19T11:34:46;14.87;;;11.50;;
7324;SDS011;3703;48.016;7.802;2022-08-19T11:37:34;18.10;;;13.77;;
7324;SDS011;3703;48.016;7.802;2022-08-19T11:40:23;13.67;;;11.93;;
7324;SDS011;3703;48.016;7.802;2022-08-19T11:43:11;19.63;;;15.40;;
7324;SDS011;3703;48.016;7.802;2022-08-19T11:45:58;19.93;;;15.10;;
7324;SDS011;3703;48.016;7.802;2022-08-19T11:48:47;18.37;;;14.17;;
7324;SDS011;3703;48.016;7.802;2022-08-19T11:51:37;18.37;;;12.80;;
7324;SDS011;3703;48.016;7.802;2022-08-19T11:54:25;15.57;;;11.97;;
7324;SDS011;3703;48.016;7.802;2022-08-19T11:57:12;15.50;;;11.97;;
7324;SDS011;3703;48.016;7.802;2022-08-19T12:00:03;18.53;;;13.80;;
7324;SDS011;3703;48.016;7.802;2022-08-19T12:02:52;16.47;;;12.53;;
7324;SDS011;3703;48.016;7.802;2022-08-19T12:05:41;16.23;;;12.27;;
7324;SDS011;3703;48.016;7.802;2022-08-19T12:08:30;21.27;;;15.33;;
7324;SDS011;3703;48.016;7.802;2022-08-19T12:11:18;18.10;;;14.67;;
7324;SDS011;3703;48.016;7.802;2022-08-19T12:14:06;14.97;;;12.50;;
7324;SDS011;3703;48.016;7.802;2022-08-19T12:16:59;16.27;;;13.83;;
7324;SDS011;3703;48.016;7.802;2022-08-19T12:19:47;16.43;;;13.23;;
7324;SDS011;3703;48.016;7.802;2022-08-19T12:22:35;13.93;;;10.87;;
7324;SDS011;3703;48.016;7.802;2022-08-19T12:25:25;14.70;;;12.63;;
7324;SDS011;3703;48.016;7.802;2022-08-19T12:28:12;18.90;;;14.37;;
7324;SDS011;3703;48.016;7.802;2022-08-19T12:31:00;14.20;;;11.40;;
7324;SDS011;3703;48.016;7.802;2022-08-19T12:33:48;18.13;;;14.57;;
7324;SDS011;3703;48.016;7.802;2022-08-19T12:36:37;17.27;;;13.90;;
7324;SDS011;3703;48.016;7.802;2022-08-19T12:39:25;17.57;;;13.77;;
7324;SDS011;3703;48.016;7.802;2022-08-19T12:42:14;16.40;;;12.27;;
7324;SDS011;3703;48.016;7.802;2022-08-19T12:45:03;14.37;;;11.87;;
7324;SDS011;3703;48.016;7.802;2022-08-19T12:47:51;15.90;;;12.53;;
7324;SDS011;3703;48.016;7.802;2022-08-19T12:50:39;15.13;;;12.53;;
7324;SDS011;3703;48.016;7.802;2022-08-19T12:53:27;14.60;;;12.40;;
7324;SDS011;3703;48.016;7.802;2022-08-19T12:56:15;15.33;;;12.67;;
7324;SDS011;3703;48.016;7.802;2022-08-19T12:59:05;12.93;;;11.60;;
7324;SDS011;3703;48.016;7.802;2022-08-19T13:01:54;15.57;;;13.17;;
7324;SDS011;3703;48.016;7.802;2022-08-19T13:04:42;15.73;;;12.77;;
7324;SDS011;3703;48.016;7.802;2022-08-19T13:07:31;15.83;;;12.17;;
7324;SDS011;3703;48.016;7.802;2022-08-19T13:10:20;16.00;;;12.20;;
7324;SDS011;3703;48.016;7.802;2022-08-19T13:13:08;16.20;;;11.77;;
7324;SDS011;3703;48.016;7.802;2022-08-19T13:16:00;15.00;;;12.23;;
7324;SDS011;3703;48.016;7.802;2022-08-19T13:18:50;15.27;;;13.10;;
7324;SDS011;3703;48.016;7.802;2022-08-19T13:21:38;21.23;;;12.90;;
7324;SDS011;3703;48.016;7.802;2022-08-19T13:24:26;20.00;;;15.27;;
7324;SDS011;3703;48.016;7.802;2022-08-19T13:27:13;18.63;;;14.43;;
7324;SDS011;3703;48.016;7.802;2022-08-19T13:30:02;13.87;;;12.17;;
7324;SDS011;3703;48.016;7.802;2022-08-19T13:33:10;13.60;;;11.30;;
7324;SDS011;3703;48.016;7.802;2022-08-19T13:35:59;12.50;;;11.20;;
7324;SDS011;3703;48.016;7.802;2022-08-19T13:38:47;13.03;;;11.63;;
7324;SDS011;3703;48.016;7.802;2022-08-19T13:41:35;12.30;;;10.97;;
7324;SDS011;3703;48.016;7.802;2022-08-19T13:44:23;13.27;;;11.03;;
7324;SDS011;3703;48.016;7.802;2022-08-19T13:47:11;14.97;;;11.10;;
7324;SDS011;3703;48.016;7.802;2022-08-19T13:50:01;11.73;;;10.53;;
7324;SDS011;3703;48.016;7.802;2022-08-19T13:52:50;11.77;;;10.40;;
7324;SDS011;3703;48.016;7.802;2022-08-19T13:55:38;10.83;;;9.73;;
7324;SDS011;3703;48.016;7.802;2022-08-19T13:58:27;11.87;;;10.63;;
7324;SDS011;3703;48.016;7.802;2022-08-19T14:01:18;12.10;;;9.67;;
7324;SDS011;3703;48.016;7.802;2022-08-19T14:04:07;12.53;;;10.20;;
7324;SDS011;3703;48.016;7.802;2022-08-19T14:06:57;11.67;;;10.57;;
7324;SDS011;3703;48.016;7.802;2022-08-19T14:09:44;10.20;;;9.20;;
7324;SDS011;3703;48.016;7.802;2022-08-19T14:12:32;12.30;;;10.60;;
7324;SDS011;3703;48.016;7.802;2022-08-19T14:15:20;14.07;;;11.30;;
7324;SDS011;3703;48.016;7.802;2022-08-19T14:18:09;10.90;;;9.90;;
7324;SDS011;3703;48.016;7.802;2022-08-19T14:20:57;13.03;;;10.30;;
7324;SDS011;3703;48.016;7.802;2022-08-19T14:23:46;12.33;;;11.13;;
7324;SDS011;3703;48.016;7.802;2022-08-19T14:26:34;11.53;;;10.33;;
7324;SDS011;3703;48.016;7.802;2022-08-19T14:29:21;11.93;;;10.30;;
7324;SDS011;3703;48.016;7.802;2022-08-19T14:32:09;14.83;;;11.80;;
7324;SDS011;3703;48.016;7.802;2022-08-19T14:34:57;13.67;;;12.23;;
7324;SDS011;3703;48.016;7.802;2022-08-19T14:37:45;14.60;;;11.97;;
7324;SDS011;3703;48.016;7.802;2022-08-19T14:40:34;16.73;;;11.87;;
7324;SDS011;3703;48.016;7.802;2022-08-19T14:43:23;14.97;;;13.37;;
7324;SDS011;3703;48.016;7.802;2022-08-19T14:46:11;14.73;;;13.17;;
7324;SDS011;3703;48.016;7.802;2022-08-19T14:49:00;21.93;;;14.40;;
7324;SDS011;3703;48.016;7.802;2022-08-19T14:51:48;17.57;;;14.40;;
7324;SDS011;3703;48.016;7.802;2022-08-19T14:54:35;17.87;;;14.87;;
7324;SDS011;3703;48.016;7.802;2022-08-19T14:57:25;18.17;;;14.53;;
7324;SDS011;3703;48.016;7.802;2022-08-19T15:00:13;17.47;;;12.77;;
7324;SDS011;3703;48.016;7.802;2022-08-19T15:03:02;19.10;;;13.57;;
7324;SDS011;3703;48.016;7.802;2022-08-19T15:05:50;21.97;;;15.93;;
7324;SDS011;3703;48.016;7.802;2022-08-19T15:08:38;19.13;;;15.00;;
7324;SDS011;3703;48.016;7.802;2022-08-19T15:11:28;17.50;;;13.63;;
7324;SDS011;3703;48.016;7.802;2022-08-19T15:14:19;21.73;;;15.30;;
7324;SDS011;3703;48.016;7.802;2022-08-19T15:17:07;17.13;;;13.97;;
7324;SDS011;3703;48.016;7.802;2022-08-19T15:19:54;19.00;;;14.77;;
7324;SDS011;3703;48.016;7.802;2022-08-19T15:22:42;20.20;;;14.57;;
7324;SDS011;3703;48.016;7.802;2022-08-19T15:25:30;17.40;;;14.60;;
7324;SDS011;3703;48.016;7.802;2022-08-19T15:28:19;18.70;;;14.23;;
7324;SDS011;3703;48.016;7.802;2022-08-19T15:31:09;16.57;;;13.97;;
7324;SDS011;3703;48.016;7.802;2022-08-19T15:33:57;15.77;;;13.27;;
7324;SDS011;3703;48.016;7.802;2022-08-19T15:36:45;17.27;;;14.00;;
7324;SDS011;3703;48.016;7.802;2022-08-19T15:39:33;15.70;;;13.17;;
7324;SDS011;3703;48.016;7.802;2022-08-19T15:42:20;15.87;;;13.17;;
7324;SDS011;3703;48.016;7.802;2022-08-19T15:45:08;16.70;;;14.43;;
7324;SDS011;3703;48.016;7.802;2022-08-19T15:48:00;15.67;;;12.60;;
7324;SDS011;3703;48.016;7.802;2022-08-19T15:50:49;16.20;;;13.27;;
7324;SDS011;3703;48.016;7.802;2022-08-19T15:53:37;17.00;;;13.60;;
7324;SDS011;3703;48.016;7.802;2022-08-19T15:56:26;15.00;;;12.53;;
7324;SDS011;3703;48.016;7.802;2022-08-19T15:59:37;16.77;;;13.00;;
7324;SDS011;3703;48.016;7.802;2022-08-19T16:02:42;14.53;;;12.33;;
7324;SDS011;3703;48.016;7.802;2022-08-19T16:05:49;14.33;;;12.67;;
7324;SDS011;3703;48.016;7.802;2022-08-19T16:09:08;15.23;;;12.77;;
7324;SDS011;3703;48.016;7.802;2022-08-19T16:11:58;13.97;;;12.30;;
7324;SDS011;3703;48.016;7.802;2022-08-19T16:14:47;15.03;;;13.43;;
7324;SDS011;3703;48.016;7.802;2022-08-19T16:17:35;14.57;;;12.23;;
7324;SDS011;3703;48.016;7.802;2022-08-19T16:20:23;16.90;;;12.10;;
7324;SDS011;3703;48.016;7.802;2022-08-19T16:23:13;13.73;;;11.97;;
7324;SDS011;3703;48.016;7.802;2022-08-19T16:26:01;13.17;;;11.00;;
7324;SDS011;3703;48.016;7.802;2022-08-19T16:28:49;14.03;;;12.37;;
7324;SDS011;3703;48.016;7.802;2022-08-19T16:31:37;12.60;;;10.47;;
7324;SDS011;3703;48.016;7.802;2022-08-19T16:34:26;13.67;;;11.93;;
7324;SDS011;3703;48.016;7.802;2022-08-19T16:37:14;13.77;;;11.23;;
7324;SDS011;3703;48.016;7.802;2022-08-19T16:40:04;13.80;;;11.63;;
7324;SDS011;3703;48.016;7.802;2022-08-19T16:42:54;12.87;;;11.37;;
7324;SDS011;3703;48.016;7.802;2022-08-19T16:45:42;11.63;;;10.43;;
7324;SDS011;3703;48.016;7.802;2022-08-19T16:48:29;14.37;;;10.40;;
7324;SDS011;3703;48.016;7.802;2022-08-19T16:51:17;13.27;;;11.20;;
7324;SDS011;3703;48.016;7.802;2022-08-19T16:54:07;11.40;;;10.30;;
7324;SDS011;3703;48.016;7.802;2022-08-19T16:56:56;11.90;;;10.53;;
7324;SDS011;3703;48.016;7.802;2022-08-19T16:59:44;13.40;;;11.67;;
7324;SDS011;3703;48.016;7.802;2022-08-19T17:02:33;13.90;;;11.67;;
7324;SDS011;3703;48.016;7.802;2022-08-19T17:05:21;14.97;;;10.93;;
7324;SDS011;3703;48.016;7.802;2022-08-19T17:08:09;13.03;;;11.57;;
7324;SDS011;3703;48.016;7.802;2022-08-19T17:10:57;13.37;;;10.37;;